sensor_id;sensor_type;location;lat;lon;timestamp;P1;durP1;ratioP1;P2;durP2;ratioP2
15667;SDS011;7934;48.710;9.024;2023-03-01T00:01:00;25.13;;;14.00;;
15667;SDS011;7934;48.710;9.024;2023-03-01T00:03:29;25.43;;;15.57;;
15667;SDS011;7934;48.710;9.024;2023-03-01T00:06:01;20.60;;;13.77;;
15667;SDS011;7934;48.710;9.024;2023-03-01T00:08:28;27.23;;;14.27;;
15667;SDS011;7934;48.710;9.024;2023-03-01T00:11:02;25.47;;;14.23;;
15667;SDS011;7934;48.710;9.024;2023-03-01T00:13:30;22.67;;;14.10;;
15667;SDS011;7934;48.710;9.024;2023-03-01T00:15:57;21.00;;;14.43;;
15667;SDS011;7934;48.710;9.024;2023-03-01T00:18:24;23.53;;;14.40;;
15667;SDS011;7934;48.710;9.024;2023-03-01T00:20:52;19.97;;;13.33;;
15667;SDS011;7934;48.710;9.024;2023-03-01T00:23:20;19.83;;;13.53;;
15667;SDS011;7934;48.710;9.024;2023-03-01T00:25:48;20.17;;;13.20;;
15667;SDS011;7934;48.710;9.024;2023-03-01T00:28:16;19.57;;;13.60;;
15667;SDS011;7934;48.710;9.024;2023-03-01T00:31:00;24.10;;;14.40;;
15667;SDS011;7934;48.710;9.024;2023-03-01T00:33:32;25.70;;;14.40;;
15667;SDS011;7934;48.710;9.024;2023-03-01T00:35:59;20.87;;;13.30;;
15667;SDS011;7934;48.710;9.024;2023-03-01T00:38:28;23.83;;;13.57;;
15667;SDS011;7934;48.710;9.024;2023-03-01T00:40:55;23.27;;;13.53;;
15667;SDS011;7934;48.710;9.024;2023-03-01T00:43:22;23.77;;;14.03;;
15667;SDS011;7934;48.710;9.024;2023-03-01T00:45:50;23.67;;;13.57;;
15667;SDS011;7934;48.710;9.024;2023-03-01T00:48:17;22.93;;;14.37;;
15667;SDS011;7934;48.710;9.024;2023-03-01T00:50:52;19.40;;;13.10;;
15667;SDS011;7934;48.710;9.024;2023-03-01T00:53:29;32.23;;;14.90;;
15667;SDS011;7934;48.710;9.024;2023-03-01T00:56:00;24.87;;;14.47;;
15667;SDS011;7934;48.710;9.024;2023-03-01T00:58:27;22.17;;;13.33;;
15667;SDS011;7934;48.710;9.024;2023-03-01T01:00:54;24.30;;;15.00;;
15667;SDS011;7934;48.710;9.024;2023-03-01T01:03:22;25.13;;;14.17;;
15667;SDS011;7934;48.710;9.024;2023-03-01T01:05:50;27.30;;;14.43;;
15667;SDS011;7934;48.710;9.024;2023-03-01T01:08:17;28.27;;;14.97;;
15667;SDS011;7934;48.710;9.024;2023-03-01T01:10:50;24.77;;;14.37;;
15667;SDS011;7934;48.710;9.024;2023-03-01T01:13:44;20.83;;;14.13;;
15667;SDS011;7934;48.710;9.024;2023-03-01T01:16:32;21.80;;;14.27;;
15667;SDS011;7934;48.710;9.024;2023-03-01T01:19:14;27.70;;;14.77;;
15667;SDS011;7934;48.710;9.024;2023-03-01T01:22:04;25.37;;;14.23;;
15667;SDS011;7934;48.710;9.024;2023-03-01T01:25:04;24.63;;;14.23;;
15667;SDS011;7934;48.710;9.024;2023-03-01T01:27:49;21.57;;;14.13;;
15667;SDS011;7934;48.710;9.024;2023-03-01T01:33:54;22.87;;;13.97;;
15667;SDS011;7934;48.710;9.024;2023-03-01T01:36:22;28.47;;;15.70;;
15667;SDS011;7934;48.710;9.024;2023-03-01T01:38:49;23.13;;;15.40;;
15667;SDS011;7934;48.710;9.024;2023-03-01T01:41:17;25.07;;;15.13;;
15667;SDS011;7934;48.710;9.024;2023-03-01T01:46:35;29.77;;;16.17;;
15667;SDS011;7934;48.710;9.024;2023-03-01T01:49:04;25.90;;;14.80;;
15667;SDS011;7934;48.710;9.024;2023-03-01T01:51:33;25.17;;;15.67;;
15667;SDS011;7934;48.710;9.024;2023-03-01T01:54:15;26.43;;;14.93;;
15667;SDS011;7934;48.710;9.024;2023-03-01T01:56:45;29.23;;;16.50;;
15667;SDS011;7934;48.710;9.024;2023-03-01T01:59:16;25.53;;;15.87;;
15667;SDS011;7934;48.710;9.024;2023-03-01T02:01:43;24.90;;;14.30;;
15667;SDS011;7934;48.710;9.024;2023-03-01T02:04:11;28.90;;;17.17;;
15667;SDS011;7934;48.710;9.024;2023-03-01T02:06:39;31.63;;;16.07;;
15667;SDS011;7934;48.710;9.024;2023-03-01T02:09:10;23.43;;;14.67;;
15667;SDS011;7934;48.710;9.024;2023-03-01T02:11:56;25.70;;;15.27;;
15667;SDS011;7934;48.710;9.024;2023-03-01T02:14:25;25.17;;;15.40;;
15667;SDS011;7934;48.710;9.024;2023-03-01T02:16:53;27.13;;;16.63;;
15667;SDS011;7934;48.710;9.024;2023-03-01T02:19:24;30.03;;;16.13;;
15667;SDS011;7934;48.710;9.024;2023-03-01T02:22:20;27.83;;;15.85;;
15667;SDS011;7934;48.710;9.024;2023-03-01T02:30:54;21.10;;;14.17;;
15667;SDS011;7934;48.710;9.024;2023-03-01T02:40:16;25.50;;;15.53;;
15667;SDS011;7934;48.710;9.024;2023-03-01T02:42:58;23.57;;;14.40;;
15667;SDS011;7934;48.710;9.024;2023-03-01T03:01:07;27.67;;;15.47;;
15667;SDS011;7934;48.710;9.024;2023-03-01T03:03:34;26.07;;;15.87;;
15667;SDS011;7934;48.710;9.024;2023-03-01T03:06:02;25.57;;;15.13;;
15667;SDS011;7934;48.710;9.024;2023-03-01T03:08:29;27.57;;;15.67;;
15667;SDS011;7934;48.710;9.024;2023-03-01T03:10:56;21.73;;;15.17;;
15667;SDS011;7934;48.710;9.024;2023-03-01T03:13:23;27.50;;;15.20;;
15667;SDS011;7934;48.710;9.024;2023-03-01T03:15:56;23.57;;;15.63;;
15667;SDS011;7934;48.710;9.024;2023-03-01T03:18:25;27.87;;;16.60;;
15667;SDS011;7934;48.710;9.024;2023-03-01T03:20:52;29.47;;;16.93;;
15667;SDS011;7934;48.710;9.024;2023-03-01T03:23:20;30.87;;;16.13;;
15667;SDS011;7934;48.710;9.024;2023-03-01T03:25:48;26.73;;;15.70;;
15667;SDS011;7934;48.710;9.024;2023-03-01T03:28:16;27.90;;;16.17;;
15667;SDS011;7934;48.710;9.024;2023-03-01T03:30:43;25.63;;;15.33;;
15667;SDS011;7934;48.710;9.024;2023-03-01T03:33:11;26.17;;;16.30;;
15667;SDS011;7934;48.710;9.024;2023-03-01T03:35:42;27.57;;;15.93;;
15667;SDS011;7934;48.710;9.024;2023-03-01T03:38:10;32.03;;;16.07;;
15667;SDS011;7934;48.710;9.024;2023-03-01T03:40:50;25.67;;;15.87;;
15667;SDS011;7934;48.710;9.024;2023-03-01T03:43:36;24.70;;;15.60;;
15667;SDS011;7934;48.710;9.024;2023-03-01T03:46:19;27.77;;;15.70;;
15667;SDS011;7934;48.710;9.024;2023-03-01T03:52:17;29.73;;;15.87;;
15667;SDS011;7934;48.710;9.024;2023-03-01T03:54:52;25.77;;;15.70;;
15667;SDS011;7934;48.710;9.024;2023-03-01T03:57:42;26.17;;;15.93;;
15667;SDS011;7934;48.710;9.024;2023-03-01T04:03:19;25.57;;;15.60;;
15667;SDS011;7934;48.710;9.024;2023-03-01T04:06:03;25.87;;;15.57;;
15667;SDS011;7934;48.710;9.024;2023-03-01T04:08:44;28.53;;;15.53;;
15667;SDS011;7934;48.710;9.024;2023-03-01T04:11:11;25.60;;;15.77;;
15667;SDS011;7934;48.710;9.024;2023-03-01T04:13:54;25.57;;;15.53;;
15667;SDS011;7934;48.710;9.024;2023-03-01T04:16:27;27.27;;;15.93;;
15667;SDS011;7934;48.710;9.024;2023-03-01T04:19:07;26.47;;;15.53;;
15667;SDS011;7934;48.710;9.024;2023-03-01T04:21:34;27.13;;;16.63;;
15667;SDS011;7934;48.710;9.024;2023-03-01T04:24:05;29.67;;;16.43;;
15667;SDS011;7934;48.710;9.024;2023-03-01T04:26:34;25.03;;;15.93;;
15667;SDS011;7934;48.710;9.024;2023-03-01T04:29:01;27.10;;;15.93;;
15667;SDS011;7934;48.710;9.024;2023-03-01T04:31:28;25.50;;;15.83;;
15667;SDS011;7934;48.710;9.024;2023-03-01T04:33:55;24.60;;;15.43;;
15667;SDS011;7934;48.710;9.024;2023-03-01T04:36:24;29.03;;;17.13;;
15667;SDS011;7934;48.710;9.024;2023-03-01T04:38:51;25.47;;;15.63;;
15667;SDS011;7934;48.710;9.024;2023-03-01T04:41:21;28.17;;;16.00;;
15667;SDS011;7934;48.710;9.024;2023-03-01T04:43:48;29.23;;;15.77;;
15667;SDS011;7934;48.710;9.024;2023-03-01T04:46:21;27.43;;;17.07;;
15667;SDS011;7934;48.710;9.024;2023-03-01T04:48:50;24.03;;;14.63;;
15667;SDS011;7934;48.710;9.024;2023-03-01T04:51:34;25.60;;;15.67;;
15667;SDS011;7934;48.710;9.024;2023-03-01T04:54:01;25.13;;;15.13;;
15667;SDS011;7934;48.710;9.024;2023-03-01T04:56:31;33.50;;;17.00;;
15667;SDS011;7934;48.710;9.024;2023-03-01T04:58:58;29.43;;;16.47;;
15667;SDS011;7934;48.710;9.024;2023-03-01T05:01:30;28.63;;;16.50;;
15667;SDS011;7934;48.710;9.024;2023-03-01T05:03:57;25.87;;;16.93;;
15667;SDS011;7934;48.710;9.024;2023-03-01T05:06:27;25.27;;;16.33;;
15667;SDS011;7934;48.710;9.024;2023-03-01T05:08:55;26.97;;;15.23;;
15667;SDS011;7934;48.710;9.024;2023-03-01T05:11:22;28.13;;;16.63;;
15667;SDS011;7934;48.710;9.024;2023-03-01T05:13:51;27.83;;;16.90;;
15667;SDS011;7934;48.710;9.024;2023-03-01T05:16:19;22.60;;;16.00;;
15667;SDS011;7934;48.710;9.024;2023-03-01T05:18:47;26.53;;;16.93;;
15667;SDS011;7934;48.710;9.024;2023-03-01T05:21:15;27.53;;;16.87;;
15667;SDS011;7934;48.710;9.024;2023-03-01T05:23:42;26.43;;;16.90;;
15667;SDS011;7934;48.710;9.024;2023-03-01T05:26:10;28.20;;;16.80;;
15667;SDS011;7934;48.710;9.024;2023-03-01T05:28:59;29.37;;;17.07;;
15667;SDS011;7934;48.710;9.024;2023-03-01T05:31:52;26.00;;;16.40;;
15667;SDS011;7934;48.710;9.024;2023-03-01T05:34:28;27.73;;;16.47;;
15667;SDS011;7934;48.710;9.024;2023-03-01T05:37:00;28.53;;;16.63;;
15667;SDS011;7934;48.710;9.024;2023-03-01T05:39:34;24.07;;;16.23;;
15667;SDS011;7934;48.710;9.024;2023-03-01T05:42:03;28.93;;;16.77;;
15667;SDS011;7934;48.710;9.024;2023-03-01T05:44:31;33.47;;;18.17;;
15667;SDS011;7934;48.710;9.024;2023-03-01T05:46:59;30.83;;;17.13;;
15667;SDS011;7934;48.710;9.024;2023-03-01T05:49:26;26.57;;;15.57;;
15667;SDS011;7934;48.710;9.024;2023-03-01T05:51:58;23.20;;;16.17;;
15667;SDS011;7934;48.710;9.024;2023-03-01T05:54:28;28.80;;;17.27;;
15667;SDS011;7934;48.710;9.024;2023-03-01T05:59:48;26.83;;;16.47;;
15667;SDS011;7934;48.710;9.024;2023-03-01T06:02:17;27.37;;;16.33;;
15667;SDS011;7934;48.710;9.024;2023-03-01T06:04:47;29.00;;;17.57;;
15667;SDS011;7934;48.710;9.024;2023-03-01T06:07:15;33.03;;;17.53;;
15667;SDS011;7934;48.710;9.024;2023-03-01T06:09:42;28.57;;;15.90;;
15667;SDS011;7934;48.710;9.024;2023-03-01T06:12:09;28.07;;;17.03;;
15667;SDS011;7934;48.710;9.024;2023-03-01T06:14:37;26.87;;;16.90;;
15667;SDS011;7934;48.710;9.024;2023-03-01T06:17:04;28.73;;;17.13;;
15667;SDS011;7934;48.710;9.024;2023-03-01T06:19:32;29.03;;;16.70;;
15667;SDS011;7934;48.710;9.024;2023-03-01T06:22:00;29.87;;;17.77;;
15667;SDS011;7934;48.710;9.024;2023-03-01T06:24:27;29.57;;;17.03;;
15667;SDS011;7934;48.710;9.024;2023-03-01T06:26:54;24.77;;;16.70;;
15667;SDS011;7934;48.710;9.024;2023-03-01T06:29:21;25.33;;;16.70;;
15667;SDS011;7934;48.710;9.024;2023-03-01T06:31:49;28.73;;;17.17;;
15667;SDS011;7934;48.710;9.024;2023-03-01T06:34:16;25.10;;;15.43;;
15667;SDS011;7934;48.710;9.024;2023-03-01T06:36:46;31.23;;;17.13;;
15667;SDS011;7934;48.710;9.024;2023-03-01T06:39:13;27.87;;;17.43;;
15667;SDS011;7934;48.710;9.024;2023-03-01T06:41:41;26.77;;;16.53;;
15667;SDS011;7934;48.710;9.024;2023-03-01T06:44:08;31.53;;;17.73;;
15667;SDS011;7934;48.710;9.024;2023-03-01T06:46:35;24.93;;;15.97;;
15667;SDS011;7934;48.710;9.024;2023-03-01T06:49:03;24.37;;;16.37;;
15667;SDS011;7934;48.710;9.024;2023-03-01T06:51:36;28.13;;;16.50;;
15667;SDS011;7934;48.710;9.024;2023-03-01T06:54:08;28.87;;;17.37;;
15667;SDS011;7934;48.710;9.024;2023-03-01T06:56:35;30.27;;;17.30;;
15667;SDS011;7934;48.710;9.024;2023-03-01T06:59:02;35.30;;;17.57;;
15667;SDS011;7934;48.710;9.024;2023-03-01T07:01:33;25.27;;;16.57;;
15667;SDS011;7934;48.710;9.024;2023-03-01T07:04:00;29.60;;;17.33;;
15667;SDS011;7934;48.710;9.024;2023-03-01T07:06:29;24.63;;;16.80;;
15667;SDS011;7934;48.710;9.024;2023-03-01T07:08:56;30.23;;;16.67;;
15667;SDS011;7934;48.710;9.024;2023-03-01T07:11:31;26.87;;;16.67;;
15667;SDS011;7934;48.710;9.024;2023-03-01T07:14:24;25.80;;;16.63;;
15667;SDS011;7934;48.710;9.024;2023-03-01T07:17:02;25.20;;;14.40;;
15667;SDS011;7934;48.710;9.024;2023-03-01T07:19:30;22.07;;;14.73;;
15667;SDS011;7934;48.710;9.024;2023-03-01T07:21:57;23.57;;;14.97;;
15667;SDS011;7934;48.710;9.024;2023-03-01T07:24:24;26.47;;;15.87;;
15667;SDS011;7934;48.710;9.024;2023-03-01T07:26:53;26.73;;;15.10;;
15667;SDS011;7934;48.710;9.024;2023-03-01T07:29:20;22.50;;;17.52;;
15667;SDS011;7934;48.710;9.024;2023-03-01T07:31:47;22.40;;;16.07;;
15667;SDS011;7934;48.710;9.024;2023-03-01T07:34:14;19.83;;;14.37;;
15667;SDS011;7934;48.710;9.024;2023-03-01T07:36:41;22.57;;;15.77;;
15667;SDS011;7934;48.710;9.024;2023-03-01T07:39:12;22.33;;;14.77;;
15667;SDS011;7934;48.710;9.024;2023-03-01T07:41:40;21.93;;;14.17;;
15667;SDS011;7934;48.710;9.024;2023-03-01T07:44:08;20.60;;;14.30;;
15667;SDS011;7934;48.710;9.024;2023-03-01T07:46:36;19.80;;;14.83;;
15667;SDS011;7934;48.710;9.024;2023-03-01T07:49:03;30.03;;;14.73;;
15667;SDS011;7934;48.710;9.024;2023-03-01T07:51:30;19.90;;;14.87;;
15667;SDS011;7934;48.710;9.024;2023-03-01T07:53:57;23.47;;;14.50;;
15667;SDS011;7934;48.710;9.024;2023-03-01T07:56:24;19.70;;;14.77;;
15667;SDS011;7934;48.710;9.024;2023-03-01T07:58:52;20.37;;;14.33;;
15667;SDS011;7934;48.710;9.024;2023-03-01T08:01:21;21.93;;;15.20;;
15667;SDS011;7934;48.710;9.024;2023-03-01T08:03:57;22.27;;;15.53;;
15667;SDS011;7934;48.710;9.024;2023-03-01T08:06:33;22.03;;;15.00;;
15667;SDS011;7934;48.710;9.024;2023-03-01T08:09:00;21.80;;;15.37;;
15667;SDS011;7934;48.710;9.024;2023-03-01T08:11:31;21.03;;;15.40;;
15667;SDS011;7934;48.710;9.024;2023-03-01T08:14:01;21.50;;;14.77;;
15667;SDS011;7934;48.710;9.024;2023-03-01T08:16:30;21.80;;;14.53;;
15667;SDS011;7934;48.710;9.024;2023-03-01T08:19:02;20.37;;;14.57;;
15667;SDS011;7934;48.710;9.024;2023-03-01T08:21:29;22.23;;;14.67;;
15667;SDS011;7934;48.710;9.024;2023-03-01T08:23:57;23.67;;;15.00;;
15667;SDS011;7934;48.710;9.024;2023-03-01T08:26:24;24.50;;;15.23;;
15667;SDS011;7934;48.710;9.024;2023-03-01T08:28:54;23.00;;;15.10;;
15667;SDS011;7934;48.710;9.024;2023-03-01T08:31:22;21.33;;;15.90;;
15667;SDS011;7934;48.710;9.024;2023-03-01T08:34:00;21.13;;;15.87;;
15667;SDS011;7934;48.710;9.024;2023-03-01T08:36:29;23.40;;;14.90;;
15667;SDS011;7934;48.710;9.024;2023-03-01T08:38:57;21.60;;;14.77;;
15667;SDS011;7934;48.710;9.024;2023-03-01T08:41:24;23.03;;;15.77;;
15667;SDS011;7934;48.710;9.024;2023-03-01T08:43:51;21.90;;;17.10;;
15667;SDS011;7934;48.710;9.024;2023-03-01T08:46:23;22.30;;;14.83;;
15667;SDS011;7934;48.710;9.024;2023-03-01T08:48:50;19.57;;;16.17;;
15667;SDS011;7934;48.710;9.024;2023-03-01T08:51:19;19.90;;;14.73;;
15667;SDS011;7934;48.710;9.024;2023-03-01T08:53:47;25.17;;;16.13;;
15667;SDS011;7934;48.710;9.024;2023-03-01T08:56:16;18.90;;;14.43;;
15667;SDS011;7934;48.710;9.024;2023-03-01T08:58:49;26.23;;;16.60;;
15667;SDS011;7934;48.710;9.024;2023-03-01T09:01:17;20.07;;;14.93;;
15667;SDS011;7934;48.710;9.024;2023-03-01T09:03:45;20.70;;;15.43;;
15667;SDS011;7934;48.710;9.024;2023-03-01T09:06:12;22.73;;;16.07;;
15667;SDS011;7934;48.710;9.024;2023-03-01T09:08:42;24.37;;;16.80;;
15667;SDS011;7934;48.710;9.024;2023-03-01T09:11:10;23.23;;;15.57;;
15667;SDS011;7934;48.710;9.024;2023-03-01T09:13:37;19.70;;;12.73;;
15667;SDS011;7934;48.710;9.024;2023-03-01T09:16:05;22.90;;;16.00;;
15667;SDS011;7934;48.710;9.024;2023-03-01T09:18:33;23.50;;;17.42;;
15667;SDS011;7934;48.710;9.024;2023-03-01T09:21:01;23.00;;;15.70;;
15667;SDS011;7934;48.710;9.024;2023-03-01T09:23:32;24.57;;;16.73;;
15667;SDS011;7934;48.710;9.024;2023-03-01T09:26:00;21.93;;;15.63;;
15667;SDS011;7934;48.710;9.024;2023-03-01T09:28:27;21.23;;;16.30;;
15667;SDS011;7934;48.710;9.024;2023-03-01T09:30:57;21.40;;;16.30;;
15667;SDS011;7934;48.710;9.024;2023-03-01T09:33:27;24.53;;;16.87;;
15667;SDS011;7934;48.710;9.024;2023-03-01T09:35:56;21.63;;;15.20;;
15667;SDS011;7934;48.710;9.024;2023-03-01T09:38:23;20.90;;;15.53;;
15667;SDS011;7934;48.710;9.024;2023-03-01T09:40:50;21.77;;;15.33;;
15667;SDS011;7934;48.710;9.024;2023-03-01T09:43:21;21.20;;;15.80;;
15667;SDS011;7934;48.710;9.024;2023-03-01T09:45:50;21.67;;;15.63;;
15667;SDS011;7934;48.710;9.024;2023-03-01T09:48:21;23.20;;;15.60;;
15667;SDS011;7934;48.710;9.024;2023-03-01T09:50:50;23.33;;;15.77;;
15667;SDS011;7934;48.710;9.024;2023-03-01T09:53:18;22.90;;;16.90;;
15667;SDS011;7934;48.710;9.024;2023-03-01T09:55:48;22.67;;;15.87;;
15667;SDS011;7934;48.710;9.024;2023-03-01T09:58:25;21.80;;;15.70;;
15667;SDS011;7934;48.710;9.024;2023-03-01T10:00:54;21.37;;;16.60;;
15667;SDS011;7934;48.710;9.024;2023-03-01T10:03:25;21.30;;;15.97;;
15667;SDS011;7934;48.710;9.024;2023-03-01T10:05:56;20.67;;;15.77;;
15667;SDS011;7934;48.710;9.024;2023-03-01T10:08:31;21.17;;;16.20;;
15667;SDS011;7934;48.710;9.024;2023-03-01T10:11:01;24.60;;;16.43;;
15667;SDS011;7934;48.710;9.024;2023-03-01T10:13:33;22.80;;;16.07;;
15667;SDS011;7934;48.710;9.024;2023-03-01T10:16:01;24.10;;;16.23;;
15667;SDS011;7934;48.710;9.024;2023-03-01T10:18:31;24.80;;;16.77;;
15667;SDS011;7934;48.710;9.024;2023-03-01T10:21:02;26.83;;;16.07;;
15667;SDS011;7934;48.710;9.024;2023-03-01T10:23:32;22.83;;;15.63;;
15667;SDS011;7934;48.710;9.024;2023-03-01T10:26:03;20.03;;;16.87;;
15667;SDS011;7934;48.710;9.024;2023-03-01T10:28:38;21.33;;;16.50;;
15667;SDS011;7934;48.710;9.024;2023-03-01T10:31:09;21.00;;;15.73;;
15667;SDS011;7934;48.710;9.024;2023-03-01T10:33:38;22.53;;;16.37;;
15667;SDS011;7934;48.710;9.024;2023-03-01T10:36:06;22.33;;;15.87;;
15667;SDS011;7934;48.710;9.024;2023-03-01T10:38:46;23.03;;;16.37;;
15667;SDS011;7934;48.710;9.024;2023-03-01T10:41:14;22.90;;;16.80;;
15667;SDS011;7934;48.710;9.024;2023-03-01T10:43:45;24.07;;;15.90;;
15667;SDS011;7934;48.710;9.024;2023-03-01T10:46:21;21.55;;;16.20;;
15667;SDS011;7934;48.710;9.024;2023-03-01T10:48:55;23.02;;;18.63;;
15667;SDS011;7934;48.710;9.024;2023-03-01T10:51:32;19.57;;;16.40;;
15667;SDS011;7934;48.710;9.024;2023-03-01T10:53:59;21.33;;;14.63;;
15667;SDS011;7934;48.710;9.024;2023-03-01T10:56:30;22.87;;;15.80;;
15667;SDS011;7934;48.710;9.024;2023-03-01T10:59:19;20.27;;;15.40;;
15667;SDS011;7934;48.710;9.024;2023-03-01T11:01:47;20.40;;;16.93;;
15667;SDS011;7934;48.710;9.024;2023-03-01T11:04:27;23.43;;;15.07;;
15667;SDS011;7934;48.710;9.024;2023-03-01T11:06:57;22.90;;;16.03;;
15667;SDS011;7934;48.710;9.024;2023-03-01T11:09:25;19.97;;;15.23;;
15667;SDS011;7934;48.710;9.024;2023-03-01T11:11:53;18.57;;;15.30;;
15667;SDS011;7934;48.710;9.024;2023-03-01T11:14:22;22.20;;;15.20;;
15667;SDS011;7934;48.710;9.024;2023-03-01T11:16:57;24.50;;;16.10;;
15667;SDS011;7934;48.710;9.024;2023-03-01T11:19:25;23.00;;;14.50;;
15667;SDS011;7934;48.710;9.024;2023-03-01T11:21:54;20.57;;;15.13;;
15667;SDS011;7934;48.710;9.024;2023-03-01T11:24:24;22.53;;;15.70;;
15667;SDS011;7934;48.710;9.024;2023-03-01T11:26:53;21.63;;;16.07;;
15667;SDS011;7934;48.710;9.024;2023-03-01T11:29:25;21.57;;;15.97;;
15667;SDS011;7934;48.710;9.024;2023-03-01T11:31:54;21.00;;;15.27;;
15667;SDS011;7934;48.710;9.024;2023-03-01T11:34:23;27.50;;;15.93;;
15667;SDS011;7934;48.710;9.024;2023-03-01T11:36:53;20.23;;;15.90;;
15667;SDS011;7934;48.710;9.024;2023-03-01T11:39:23;24.53;;;15.70;;
15667;SDS011;7934;48.710;9.024;2023-03-01T11:41:52;21.57;;;16.07;;
15667;SDS011;7934;48.710;9.024;2023-03-01T11:44:27;21.27;;;15.17;;
15667;SDS011;7934;48.710;9.024;2023-03-01T11:47:10;20.30;;;15.37;;
15667;SDS011;7934;48.710;9.024;2023-03-01T11:49:49;26.80;;;15.80;;
15667;SDS011;7934;48.710;9.024;2023-03-01T11:52:25;21.60;;;14.97;;
15667;SDS011;7934;48.710;9.024;2023-03-01T11:54:57;18.70;;;15.53;;
15667;SDS011;7934;48.710;9.024;2023-03-01T11:57:33;19.30;;;14.43;;
15667;SDS011;7934;48.710;9.024;2023-03-01T12:00:10;15.93;;;14.07;;
15667;SDS011;7934;48.710;9.024;2023-03-01T12:02:49;16.50;;;13.20;;
15667;SDS011;7934;48.710;9.024;2023-03-01T12:05:24;20.03;;;15.87;;
15667;SDS011;7934;48.710;9.024;2023-03-01T12:07:57;19.60;;;15.10;;
15667;SDS011;7934;48.710;9.024;2023-03-01T12:10:30;19.63;;;13.60;;
15667;SDS011;7934;48.710;9.024;2023-03-01T12:13:06;21.47;;;14.93;;
15667;SDS011;7934;48.710;9.024;2023-03-01T12:18:29;20.60;;;15.57;;
15667;SDS011;7934;48.710;9.024;2023-03-01T12:21:03;18.67;;;14.67;;
15667;SDS011;7934;48.710;9.024;2023-03-01T12:23:38;21.57;;;15.87;;
15667;SDS011;7934;48.710;9.024;2023-03-01T12:26:09;21.67;;;15.10;;
15667;SDS011;7934;48.710;9.024;2023-03-01T12:28:41;15.47;;;13.73;;
15667;SDS011;7934;48.710;9.024;2023-03-01T12:31:23;17.10;;;14.07;;
15667;SDS011;7934;48.710;9.024;2023-03-01T12:33:59;22.47;;;15.07;;
15667;SDS011;7934;48.710;9.024;2023-03-01T12:36:31;20.53;;;14.50;;
15667;SDS011;7934;48.710;9.024;2023-03-01T12:39:08;19.93;;;15.43;;
15667;SDS011;7934;48.710;9.024;2023-03-01T12:41:46;17.10;;;12.93;;
15667;SDS011;7934;48.710;9.024;2023-03-01T12:44:27;19.00;;;14.50;;
15667;SDS011;7934;48.710;9.024;2023-03-01T12:47:04;20.57;;;15.50;;
15667;SDS011;7934;48.710;9.024;2023-03-01T12:49:34;21.57;;;15.43;;
15667;SDS011;7934;48.710;9.024;2023-03-01T12:52:09;19.20;;;14.70;;
15667;SDS011;7934;48.710;9.024;2023-03-01T12:54:38;20.23;;;15.77;;
15667;SDS011;7934;48.710;9.024;2023-03-01T12:57:07;19.20;;;15.03;;
15667;SDS011;7934;48.710;9.024;2023-03-01T12:59:36;19.30;;;14.00;;
15667;SDS011;7934;48.710;9.024;2023-03-01T13:02:09;18.17;;;14.67;;
15667;SDS011;7934;48.710;9.024;2023-03-01T13:04:53;17.37;;;12.73;;
15667;SDS011;7934;48.710;9.024;2023-03-01T13:07:29;17.57;;;13.50;;
15667;SDS011;7934;48.710;9.024;2023-03-01T13:10:05;18.10;;;14.20;;
15667;SDS011;7934;48.710;9.024;2023-03-01T13:12:51;18.47;;;13.23;;
15667;SDS011;7934;48.710;9.024;2023-03-01T13:15:29;17.07;;;13.67;;
15667;SDS011;7934;48.710;9.024;2023-03-01T13:17:57;17.33;;;13.60;;
15667;SDS011;7934;48.710;9.024;2023-03-01T13:20:27;16.10;;;12.97;;
15667;SDS011;7934;48.710;9.024;2023-03-01T13:23:00;18.10;;;13.23;;
15667;SDS011;7934;48.710;9.024;2023-03-01T13:25:28;16.93;;;12.47;;
15667;SDS011;7934;48.710;9.024;2023-03-01T13:28:32;16.47;;;12.97;;
15667;SDS011;7934;48.710;9.024;2023-03-01T13:30:51;22.57;;;13.57;;
15667;SDS011;7934;48.710;9.024;2023-03-01T13:39:00;17.27;;;13.07;;
15667;SDS011;7934;48.710;9.024;2023-03-01T13:44:16;14.73;;;11.60;;
15667;SDS011;7934;48.710;9.024;2023-03-01T13:46:47;14.73;;;11.90;;
15667;SDS011;7934;48.710;9.024;2023-03-01T13:49:21;14.27;;;11.60;;
15667;SDS011;7934;48.710;9.024;2023-03-01T13:51:49;15.37;;;12.63;;
15667;SDS011;7934;48.710;9.024;2023-03-01T13:54:21;14.17;;;11.23;;
15667;SDS011;7934;48.710;9.024;2023-03-01T13:56:51;23.63;;;12.17;;
15667;SDS011;7934;48.710;9.024;2023-03-01T13:59:19;16.50;;;12.80;;
15667;SDS011;7934;48.710;9.024;2023-03-01T14:01:51;19.67;;;12.60;;
15667;SDS011;7934;48.710;9.024;2023-03-01T14:04:20;21.40;;;13.47;;
15667;SDS011;7934;48.710;9.024;2023-03-01T14:06:47;18.43;;;13.00;;
15667;SDS011;7934;48.710;9.024;2023-03-01T14:09:15;18.97;;;13.47;;
15667;SDS011;7934;48.710;9.024;2023-03-01T14:14:41;18.97;;;13.43;;
15667;SDS011;7934;48.710;9.024;2023-03-01T14:17:13;19.47;;;14.17;;
15667;SDS011;7934;48.710;9.024;2023-03-01T14:19:43;20.80;;;14.43;;
15667;SDS011;7934;48.710;9.024;2023-03-01T14:22:14;20.83;;;14.90;;
15667;SDS011;7934;48.710;9.024;2023-03-01T14:24:46;17.53;;;13.90;;
15667;SDS011;7934;48.710;9.024;2023-03-01T14:27:14;19.03;;;13.97;;
15667;SDS011;7934;48.710;9.024;2023-03-01T14:29:44;18.63;;;14.43;;
15667;SDS011;7934;48.710;9.024;2023-03-01T14:32:12;20.37;;;14.63;;
15667;SDS011;7934;48.710;9.024;2023-03-01T14:34:42;18.87;;;13.83;;
15667;SDS011;7934;48.710;9.024;2023-03-01T14:37:11;19.43;;;14.83;;
15667;SDS011;7934;48.710;9.024;2023-03-01T14:39:38;22.27;;;14.67;;
15667;SDS011;7934;48.710;9.024;2023-03-01T14:42:05;22.07;;;15.13;;
15667;SDS011;7934;48.710;9.024;2023-03-01T14:44:34;18.23;;;14.57;;
15667;SDS011;7934;48.710;9.024;2023-03-01T14:47:03;21.53;;;15.97;;
15667;SDS011;7934;48.710;9.024;2023-03-01T14:49:31;20.37;;;15.90;;
15667;SDS011;7934;48.710;9.024;2023-03-01T14:52:02;22.23;;;15.27;;
15667;SDS011;7934;48.710;9.024;2023-03-01T14:54:32;22.93;;;15.87;;
15667;SDS011;7934;48.710;9.024;2023-03-01T14:57:03;23.13;;;14.33;;
15667;SDS011;7934;48.710;9.024;2023-03-01T14:59:30;22.13;;;15.47;;
15667;SDS011;7934;48.710;9.024;2023-03-01T15:01:59;25.70;;;16.43;;
15667;SDS011;7934;48.710;9.024;2023-03-01T15:04:28;21.17;;;15.77;;
15667;SDS011;7934;48.710;9.024;2023-03-01T15:06:57;22.63;;;15.70;;
15667;SDS011;7934;48.710;9.024;2023-03-01T15:09:29;29.27;;;16.67;;
15667;SDS011;7934;48.710;9.024;2023-03-01T15:11:59;24.00;;;15.77;;
15667;SDS011;7934;48.710;9.024;2023-03-01T15:14:27;22.07;;;16.40;;
15667;SDS011;7934;48.710;9.024;2023-03-01T15:16:54;24.03;;;16.20;;
15667;SDS011;7934;48.710;9.024;2023-03-01T15:19:22;23.67;;;16.17;;
15667;SDS011;7934;48.710;9.024;2023-03-01T15:21:52;27.80;;;16.80;;
15667;SDS011;7934;48.710;9.024;2023-03-01T15:24:20;25.07;;;16.73;;
15667;SDS011;7934;48.710;9.024;2023-03-01T15:26:50;26.00;;;16.53;;
15667;SDS011;7934;48.710;9.024;2023-03-01T15:29:21;26.87;;;16.67;;
15667;SDS011;7934;48.710;9.024;2023-03-01T15:31:56;23.90;;;16.87;;
15667;SDS011;7934;48.710;9.024;2023-03-01T15:34:27;20.83;;;15.53;;
15667;SDS011;7934;48.710;9.024;2023-03-01T15:36:56;22.77;;;18.17;;
15667;SDS011;7934;48.710;9.024;2023-03-01T15:42:08;27.40;;;15.97;;
15667;SDS011;7934;48.710;9.024;2023-03-01T15:44:36;23.17;;;15.67;;
15667;SDS011;7934;48.710;9.024;2023-03-01T15:47:05;23.07;;;16.23;;
15667;SDS011;7934;48.710;9.024;2023-03-01T15:49:36;25.43;;;16.33;;
15667;SDS011;7934;48.710;9.024;2023-03-01T15:52:10;29.87;;;15.57;;
15667;SDS011;7934;48.710;9.024;2023-03-01T15:54:38;24.50;;;16.53;;
15667;SDS011;7934;48.710;9.024;2023-03-01T15:57:08;25.43;;;17.40;;